createdAt,value
2023-02-25T00:01:15.859Z,95466.47
2023-02-25T00:03:44.040Z,95469.97
2023-02-25T00:06:13.898Z,95468.44
2023-02-25T00:08:45.505Z,95462.22
2023-02-25T00:11:14.837Z,95462.00
2023-02-25T00:13:44.092Z,95458.41
2023-02-25T00:16:12.923Z,95455.63
2023-02-25T00:18:44.521Z,95456.03
2023-02-25T00:21:15.199Z,95451.03
2023-02-25T00:23:44.907Z,95457.69
2023-02-25T00:26:13.600Z,95466.25
2023-02-25T00:28:42.112Z,95463.41
2023-02-25T00:31:11.447Z,95459.34
2023-02-25T00:33:42.059Z,95467.94
2023-02-25T00:36:14.606Z,95471.88
2023-02-25T00:38:42.465Z,95477.09
2023-02-25T00:41:12.603Z,95471.25
2023-02-25T00:43:42.204Z,95465.66
2023-02-25T00:46:12.145Z,95460.53
2023-02-25T00:48:40.872Z,95461.50
2023-02-25T00:51:11.842Z,95471.25
2023-02-25T00:53:40.436Z,95472.81
2023-02-25T00:56:10.000Z,95472.34
2023-02-25T00:58:38.334Z,95461.06
2023-02-25T01:01:08.378Z,95473.31
2023-02-25T01:03:36.251Z,95484.22
2023-02-25T01:06:04.573Z,95482.44
2023-02-25T01:08:34.083Z,95473.66
2023-02-25T01:11:02.257Z,95466.06
2023-02-25T01:13:30.137Z,95474.03
2023-02-25T01:15:58.150Z,95470.56
2023-02-25T01:18:26.032Z,95473.19
2023-02-25T01:20:54.079Z,95466.06
2023-02-25T01:23:23.398Z,95473.75
2023-02-25T01:25:52.743Z,95476.88
2023-02-25T01:28:21.924Z,95504.91
2023-02-25T01:30:52.592Z,95508.59
2023-02-25T01:33:21.430Z,95511.84
2023-02-25T01:35:49.332Z,95514.31
2023-02-25T01:38:17.209Z,95511.34
2023-02-25T01:40:46.529Z,95504.22
2023-02-25T01:43:16.858Z,95504.91
2023-02-25T01:45:45.650Z,95492.91
2023-02-25T01:48:17.230Z,95488.41
2023-02-25T01:50:51.454Z,95487.47
2023-02-25T01:53:25.036Z,95491.25
2023-02-25T01:55:53.556Z,95488.41
2023-02-25T01:58:23.457Z,95489.69
2023-02-25T02:00:55.638Z,95490.53
2023-02-25T02:03:27.625Z,95506.44
2023-02-25T02:06:00.848Z,95515.22
2023-02-25T02:08:29.612Z,95517.44
2023-02-25T02:10:57.968Z,95510.31
2023-02-25T02:13:27.720Z,95503.44
2023-02-25T02:16:10.132Z,95506.66
2023-02-25T02:18:46.603Z,95501.06
2023-02-25T02:21:30.756Z,95512.13
2023-02-25T02:24:30.088Z,95526.75
2023-02-25T02:27:02.732Z,95517.78
2023-02-25T02:30:13.059Z,95526.34
2023-02-25T02:32:47.761Z,95513.50
2023-02-25T02:35:22.004Z,95510.06
2023-02-25T02:38:00.297Z,95521.34
2023-02-25T02:40:42.122Z,95513.94
2023-02-25T02:43:22.189Z,95515.63
2023-02-25T02:45:55.472Z,95513.28
2023-02-25T02:48:29.792Z,95513.03
2023-02-25T02:51:01.112Z,95511.28
2023-02-25T02:53:34.167Z,95513.31
2023-02-25T02:56:06.148Z,95525.63
2023-02-25T02:58:38.321Z,95529.38
2023-02-25T03:01:10.835Z,95527.81
2023-02-25T03:03:44.340Z,95532.97
2023-02-25T03:06:17.018Z,95537.59
2023-02-25T03:08:49.802Z,95532.53
2023-02-25T03:11:18.610Z,95543.41
2023-02-25T03:13:46.610Z,95543.41
2023-02-25T03:16:22.546Z,95539.00
2023-02-25T03:18:59.011Z,95536.13
2023-02-25T03:21:32.532Z,95536.31
2023-02-25T03:24:01.573Z,95540.19
2023-02-25T03:26:32.081Z,95542.19
2023-02-25T03:29:03.605Z,95543.00
2023-02-25T03:31:37.231Z,95549.06
2023-02-25T03:34:12.338Z,95543.13
2023-02-25T03:36:43.815Z,95544.16
2023-02-25T03:39:16.881Z,95547.50
2023-02-25T03:41:48.770Z,95546.56
2023-02-25T03:44:22.225Z,95545.03
2023-02-25T03:46:53.672Z,95543.00
2023-02-25T03:49:28.492Z,95545.44
2023-02-25T03:52:00.836Z,95545.94
2023-02-25T03:54:29.117Z,95547.00
2023-02-25T03:56:57.301Z,95543.97
2023-02-25T03:59:28.232Z,95548.47
2023-02-25T04:01:58.194Z,95550.97
2023-02-25T04:04:27.491Z,95552.00
2023-02-25T04:06:55.333Z,95549.63
2023-02-25T04:09:23.146Z,95554.75
2023-02-25T04:11:51.122Z,95557.44
2023-02-25T04:14:18.994Z,95566.03
2023-02-25T04:16:47.297Z,95574.81
2023-02-25T04:19:15.387Z,95583.72
2023-02-25T04:21:45.768Z,95588.09
2023-02-25T04:24:13.720Z,95579.13
2023-02-25T04:26:41.690Z,95584.44
2023-02-25T04:29:09.531Z,95585.09
2023-02-25T04:31:37.434Z,95577.88
2023-02-25T04:34:05.547Z,95583.31
2023-02-25T04:36:35.479Z,95583.75
2023-02-25T04:39:06.995Z,95591.16
2023-02-25T04:41:37.016Z,95591.56
2023-02-25T04:44:06.445Z,95589.28
2023-02-25T04:46:36.665Z,95590.31
2023-02-25T04:49:05.110Z,95586.97
2023-02-25T04:51:33.241Z,95586.34
2023-02-25T04:55:14.832Z,95586.97
2023-02-25T05:02:02.995Z,95595.31
2023-02-25T05:04:32.050Z,95595.88
2023-02-25T05:06:59.805Z,95597.41
2023-02-25T05:09:28.648Z,95597.22
2023-02-25T05:11:56.815Z,95599.28
2023-02-25T05:14:24.992Z,95594.59
2023-02-25T05:16:52.882Z,95599.09
2023-02-25T05:19:23.723Z,95594.69
2023-02-25T05:21:52.019Z,95595.63
2023-02-25T05:24:23.544Z,95597.41
2023-02-25T05:26:52.255Z,95593.44
2023-02-25T05:29:19.973Z,95588.84
2023-02-25T05:31:47.943Z,95595.97
2023-02-25T05:34:17.573Z,95588.84
2023-02-25T05:36:47.604Z,95593.34
2023-02-25T05:39:15.763Z,95599.41
2023-02-25T05:41:43.518Z,95597.84
2023-02-25T05:44:11.779Z,95602.63
2023-02-25T05:46:39.572Z,95609.03
2023-02-25T05:49:07.331Z,95598.66
2023-02-25T05:51:35.048Z,95608.91
2023-02-25T05:54:04.638Z,95606.19
2023-02-25T05:56:32.555Z,95609.94
2023-02-25T05:59:00.680Z,95604.81
2023-02-25T06:01:29.676Z,95601.06
2023-02-25T06:03:58.581Z,95599.72
2023-02-25T06:06:28.271Z,95607.53
2023-02-25T06:08:56.189Z,95606.41
2023-02-25T06:11:27.297Z,95595.97
2023-02-25T06:13:56.281Z,95596.66
2023-02-25T06:16:25.854Z,95603.06
2023-02-25T06:18:53.944Z,95613.28
2023-02-25T06:21:21.782Z,95618.59
2023-02-25T06:23:50.727Z,95630.09
2023-02-25T06:26:19.530Z,95617.47
2023-02-25T06:28:48.825Z,95635.97
2023-02-25T06:31:18.502Z,95637.84
2023-02-25T06:33:47.115Z,95656.13
2023-02-25T06:36:15.558Z,95657.78
2023-02-25T06:38:45.937Z,95656.75
2023-02-25T06:41:16.595Z,95642.84
2023-02-25T06:43:45.475Z,95635.66
2023-02-25T06:46:16.013Z,95643.81
2023-02-25T06:48:43.900Z,95649.13
2023-02-25T06:51:12.848Z,95653.41
2023-02-25T06:53:43.092Z,95653.09
2023-02-25T06:56:13.612Z,95644.72
2023-02-25T06:58:41.761Z,95640.34
2023-02-25T07:01:10.742Z,95646.09
2023-02-25T07:03:40.175Z,95646.28
2023-02-25T07:06:08.891Z,95653.09
2023-02-25T07:08:37.124Z,95661.03
2023-02-25T07:11:15.155Z,95662.31
2023-02-25T07:13:44.420Z,95668.44
2023-02-25T07:16:13.331Z,95666.34
2023-02-25T07:18:43.122Z,95665.53
2023-02-25T07:21:12.222Z,95665.09
2023-02-25T07:23:40.758Z,95660.22
2023-02-25T07:26:11.701Z,95668.66
2023-02-25T07:28:40.498Z,95663.88
2023-02-25T07:31:15.533Z,95663.66
2023-02-25T07:33:45.696Z,95665.22
2023-02-25T07:36:13.736Z,95667.00
2023-02-25T07:38:41.976Z,95679.53
2023-02-25T07:41:11.996Z,95675.03
2023-02-25T07:43:40.087Z,95662.38
2023-02-25T07:46:08.416Z,95662.38
2023-02-25T07:48:36.662Z,95658.09
2023-02-25T07:51:12.229Z,95648.81
2023-02-25T07:53:40.212Z,95649.25
2023-02-25T07:56:08.854Z,95647.16
2023-02-25T07:58:36.986Z,95646.53
2023-02-25T08:01:09.395Z,95642.31
2023-02-25T08:03:39.018Z,95644.22
2023-02-25T08:06:09.194Z,95648.72
2023-02-25T08:08:37.824Z,95642.97
2023-02-25T08:11:07.353Z,95643.41
2023-02-25T08:13:35.521Z,95631.69
2023-02-25T08:16:05.692Z,95651.13
2023-02-25T08:18:34.149Z,95641.72
2023-02-25T08:21:02.980Z,95637.88
2023-02-25T08:23:32.742Z,95635.25
2023-02-25T08:26:01.258Z,95640.16
2023-02-25T08:28:33.919Z,95647.78
2023-02-25T08:31:03.444Z,95662.72
2023-02-25T08:33:31.710Z,95678.72
2023-02-25T08:36:09.616Z,95673.09
2023-02-25T08:38:39.957Z,95663.88
2023-02-25T08:41:08.777Z,95671.56
2023-02-25T08:43:36.951Z,95670.88
2023-02-25T08:46:06.385Z,95663.25
2023-02-25T08:48:34.677Z,95671.53
2023-02-25T08:51:08.345Z,95674.13
2023-02-25T08:53:37.032Z,95666.00
2023-02-25T08:56:06.478Z,95661.16
2023-02-25T08:58:35.077Z,95664.31
2023-02-25T09:01:08.879Z,95656.47
2023-02-25T09:03:36.880Z,95661.28
2023-02-25T09:06:05.091Z,95659.72
2023-02-25T09:08:32.997Z,95668.38
2023-02-25T09:11:00.769Z,95664.94
2023-02-25T09:13:30.589Z,95664.50
2023-02-25T09:15:58.941Z,95660.53
2023-02-25T09:18:26.890Z,95666.00
2023-02-25T09:20:54.715Z,95664.44
2023-02-25T09:23:22.538Z,95677.38
2023-02-25T09:25:50.499Z,95664.50
2023-02-25T09:28:18.548Z,95659.28
2023-02-25T09:30:48.108Z,95665.13
2023-02-25T09:33:16.335Z,95662.34
2023-02-25T09:35:45.233Z,95650.19
2023-02-25T09:38:13.464Z,95649.75
2023-02-25T09:40:42.430Z,95654.78
2023-02-25T09:43:21.414Z,95653.81
2023-02-25T09:45:54.642Z,95651.00
2023-02-25T09:48:30.361Z,95650.06
2023-02-25T09:51:05.256Z,95648.41
2023-02-25T09:53:37.580Z,95648.00
2023-02-25T09:56:07.729Z,95650.69
2023-02-25T09:58:41.259Z,95649.25
2023-02-25T10:01:17.244Z,95646.41
2023-02-25T10:03:55.630Z,95634.75
2023-02-25T10:06:29.892Z,95640.31
2023-02-25T10:09:08.318Z,95643.25
2023-02-25T10:11:47.578Z,95641.88
2023-02-25T10:14:40.105Z,95640.63
2023-02-25T10:17:17.598Z,95638.34
2023-02-25T10:20:02.017Z,95645.84
2023-02-25T10:22:43.547Z,95643.84
2023-02-25T10:25:15.938Z,95645.13
2023-02-25T10:27:49.298Z,95640.50
2023-02-25T10:30:24.305Z,95643.47
2023-02-25T10:32:55.119Z,95644.00
2023-02-25T10:35:27.552Z,95646.97
2023-02-25T10:37:55.808Z,95651.53
2023-02-25T10:40:25.660Z,95648.41
2023-02-25T10:43:02.510Z,95647.75
2023-02-25T10:45:32.238Z,95634.25
2023-02-25T10:48:07.029Z,95622.28
2023-02-25T10:50:45.617Z,95623.19
2023-02-25T10:53:16.082Z,95626.28
2023-02-25T10:55:52.444Z,95623.41
2023-02-25T10:58:27.279Z,95618.00
2023-02-25T11:00:58.859Z,95619.78
2023-02-25T11:03:31.519Z,95611.41
2023-02-25T11:06:11.889Z,95625.22
2023-02-25T11:08:39.805Z,95625.47
2023-02-25T11:11:16.639Z,95620.00
2023-02-25T11:13:45.148Z,95615.31
2023-02-25T11:16:16.627Z,95625.41
2023-02-25T11:18:52.034Z,95620.06
2023-02-25T11:21:31.212Z,95623.81
2023-02-25T11:24:03.070Z,95615.09
2023-02-25T11:26:34.073Z,95624.47
2023-02-25T11:29:03.908Z,95616.38
2023-02-25T11:31:36.493Z,95618.06
2023-02-25T11:34:13.908Z,95608.88
2023-02-25T11:36:42.274Z,95610.38
2023-02-25T11:39:20.058Z,95607.91
2023-02-25T11:41:50.977Z,95602.75
2023-02-25T11:44:31.798Z,95612.63
2023-02-25T11:47:09.165Z,95605.97
2023-02-25T11:49:53.899Z,95621.13
2023-02-25T11:52:28.566Z,95608.78
2023-02-25T11:55:13.289Z,95614.25
2023-02-25T11:57:51.494Z,95614.03
2023-02-25T12:00:28.856Z,95611.31
2023-02-25T12:03:16.774Z,95614.84
2023-02-25T12:05:56.450Z,95616.34
2023-02-25T12:08:40.839Z,95613.78
2023-02-25T12:11:52.264Z,95618.63
2023-02-25T12:15:11.661Z,95604.88
2023-02-25T12:21:08.646Z,95601.97
2023-02-25T12:24:04.203Z,95604.81
2023-02-25T12:26:45.212Z,95613.16
2023-02-25T12:29:36.505Z,95613.09
2023-02-25T12:32:19.307Z,95612.44
2023-02-25T12:35:36.477Z,95618.47
2023-02-25T12:38:25.054Z,95630.56
2023-02-25T12:41:26.875Z,95608.88
2023-02-25T12:44:01.024Z,95619.56
2023-02-25T12:46:48.835Z,95613.66
2023-02-25T12:49:58.282Z,95621.84
2023-02-25T12:52:36.299Z,95617.22
2023-02-25T12:55:25.133Z,95614.16
2023-02-25T12:58:06.949Z,95614.63
2023-02-25T13:00:58.390Z,95609.56
2023-02-25T13:03:36.067Z,95615.94
2023-02-25T13:06:48.433Z,95613.75
2023-02-25T13:09:48.019Z,95615.03
2023-02-25T13:12:29.866Z,95606.84
2023-02-25T13:15:11.000Z,95613.31
2023-02-25T13:18:06.938Z,95599.66
2023-02-25T13:20:49.590Z,95599.66
2023-02-25T13:23:34.872Z,95598.00
2023-02-25T13:26:25.981Z,95604.09
2023-02-25T13:29:08.013Z,95602.75
2023-02-25T13:31:46.112Z,95598.44
2023-02-25T13:34:30.421Z,95601.78
2023-02-25T13:37:18.653Z,95595.59
2023-02-25T13:40:05.329Z,95592.16
2023-02-25T13:43:04.658Z,95594.78
2023-02-25T13:45:56.893Z,95597.03
2023-02-25T13:48:49.067Z,95590.25
2023-02-25T13:51:31.219Z,95588.50
2023-02-25T13:54:15.791Z,95587.81
2023-02-25T13:56:53.108Z,95587.63
2023-02-25T13:59:40.119Z,95579.41
2023-02-25T14:02:25.598Z,95585.28
2023-02-25T14:05:18.170Z,95582.81
2023-02-25T14:08:04.855Z,95577.44
2023-02-25T14:10:47.849Z,95574.56
2023-02-25T14:13:39.474Z,95587.16
2023-02-25T14:16:19.678Z,95582.00
2023-02-25T14:19:07.578Z,95585.88
2023-02-25T14:22:16.362Z,95588.47
2023-02-25T14:24:54.869Z,95587.09
2023-02-25T14:27:32.208Z,95592.78
2023-02-25T14:30:13.398Z,95592.38
2023-02-25T14:32:53.222Z,95597.28
2023-02-25T14:35:42.629Z,95589.44
2023-02-25T14:38:14.266Z,95578.31
2023-02-25T14:40:50.483Z,95584.47
2023-02-25T14:43:29.882Z,95578.72
2023-02-25T14:46:03.804Z,95592.22
2023-02-25T14:48:39.912Z,95595.56
2023-02-25T14:51:38.486Z,95587.56
2023-02-25T14:55:06.474Z,95599.00
2023-02-25T14:58:24.283Z,95599.97
2023-02-25T15:01:26.865Z,95597.06
2023-02-25T15:04:26.390Z,95587.97
2023-02-25T15:07:09.613Z,95590.28
2023-02-25T15:10:12.929Z,95601.13
2023-02-25T15:13:12.218Z,95599.41
2023-02-25T15:16:02.686Z,95599.97
2023-02-25T15:19:13.915Z,95596.47
2023-02-25T15:21:44.148Z,95607.91
2023-02-25T15:24:40.046Z,95600.41
2023-02-25T15:27:34.108Z,95598.75
2023-02-25T15:30:06.235Z,95611.13
2023-02-25T15:32:57.642Z,95615.38
2023-02-25T15:35:58.930Z,95615.88
2023-02-25T15:38:42.410Z,95619.88
2023-02-25T15:41:39.784Z,95621.41
2023-02-25T15:44:50.457Z,95629.91
2023-02-25T15:47:29.303Z,95624.91
2023-02-25T15:49:58.729Z,95619.34
2023-02-25T15:52:58.778Z,95621.22
2023-02-25T15:55:39.963Z,95625.56
2023-02-25T15:58:43.548Z,95623.31
2023-02-25T16:01:27.617Z,95629.50
2023-02-25T16:03:57.263Z,95620.50
2023-02-25T16:06:31.242Z,95628.44
2023-02-25T16:09:08.035Z,95622.22
2023-02-25T16:11:39.675Z,95631.28
2023-02-25T16:14:13.999Z,95635.06
2023-02-25T16:16:48.144Z,95636.94
2023-02-25T16:19:20.074Z,95653.78
2023-02-25T16:21:52.266Z,95644.28
2023-02-25T16:24:20.960Z,95648.47
2023-02-25T16:26:58.799Z,95655.47
2023-02-25T16:29:43.584Z,95653.91
2023-02-25T16:32:24.718Z,95661.31
2023-02-25T16:35:00.351Z,95672.97
2023-02-25T16:37:37.196Z,95671.09
2023-02-25T16:40:06.679Z,95683.31
2023-02-25T16:42:35.749Z,95673.31
2023-02-25T16:45:06.813Z,95682.19
2023-02-25T16:47:36.687Z,95676.97
2023-02-25T16:50:13.790Z,95685.13
2023-02-25T16:52:48.324Z,95702.25
2023-02-25T16:55:29.478Z,95696.31
2023-02-25T16:58:06.322Z,95702.78
2023-02-25T17:00:36.509Z,95705.59
2023-02-25T17:03:06.797Z,95715.50
2023-02-25T17:05:38.714Z,95713.41
2023-02-25T17:08:15.331Z,95724.63
2023-02-25T17:10:46.119Z,95729.19
2023-02-25T17:13:20.051Z,95733.59
2023-02-25T17:15:48.292Z,95727.75
2023-02-25T17:18:21.573Z,95725.31
2023-02-25T17:20:51.409Z,95723.56
2023-02-25T17:23:19.614Z,95721.03
2023-02-25T17:25:49.995Z,95730.84
2023-02-25T17:28:22.464Z,95730.31
2023-02-25T17:30:52.002Z,95733.88
2023-02-25T17:33:26.987Z,95738.16
2023-02-25T17:35:59.870Z,95743.28
2023-02-25T17:38:30.365Z,95743.28
2023-02-25T17:40:59.317Z,95750.28
2023-02-25T17:43:35.332Z,95750.75
2023-02-25T17:46:04.981Z,95759.16
2023-02-25T17:48:41.092Z,95754.56
2023-02-25T17:51:11.585Z,95774.25
2023-02-25T17:53:44.813Z,95778.50
2023-02-25T17:56:17.738Z,95783.94
2023-02-25T17:58:46.266Z,95792.09
2023-02-25T18:01:23.886Z,95798.47
2023-02-25T18:03:52.963Z,95808.56
2023-02-25T18:06:44.661Z,95812.44
2023-02-25T18:09:40.163Z,95817.66
2023-02-25T18:12:21.287Z,95809.66
2023-02-25T18:14:54.941Z,95810.97
2023-02-25T18:17:28.301Z,95815.91
2023-02-25T18:19:58.552Z,95815.72
2023-02-25T18:22:40.544Z,95818.09
2023-02-25T18:25:30.347Z,95826.19
2023-02-25T18:27:58.624Z,95824.16
2023-02-25T18:30:28.860Z,95826.19
2023-02-25T18:32:59.186Z,95821.66
2023-02-25T18:35:29.033Z,95821.25
2023-02-25T18:37:59.676Z,95825.22
2023-02-25T18:40:30.745Z,95824.25
2023-02-25T18:42:59.730Z,95833.31
2023-02-25T18:45:29.699Z,95831.66
2023-02-25T18:47:57.899Z,95834.19
2023-02-25T18:50:26.031Z,95840.16
2023-02-25T18:52:55.267Z,95839.38
2023-02-25T18:55:26.514Z,95831.44
2023-02-25T18:57:55.208Z,95847.28
2023-02-25T19:00:27.258Z,95840.31
2023-02-25T19:02:57.716Z,95840.56
2023-02-25T19:05:26.440Z,95842.53
2023-02-25T19:07:54.964Z,95846.63
2023-02-25T19:10:26.693Z,95835.22
2023-02-25T19:13:01.837Z,95849.78
2023-02-25T19:15:30.169Z,95845.78
2023-02-25T19:17:57.976Z,95848.50
2023-02-25T19:20:25.867Z,95846.78
2023-02-25T19:22:54.613Z,95852.13
2023-02-25T19:25:26.260Z,95855.72
2023-02-25T19:27:55.150Z,95849.59
2023-02-25T19:30:25.177Z,95858.16
2023-02-25T19:32:53.090Z,95855.63
2023-02-25T19:35:20.964Z,95861.56
2023-02-25T19:37:49.422Z,95874.97
2023-02-25T19:40:18.017Z,95881.03
2023-02-25T19:42:48.842Z,95881.38
2023-02-25T19:45:20.311Z,95881.94
2023-02-25T19:47:49.927Z,95886.31
2023-02-25T19:50:18.990Z,95889.94
2023-02-25T19:52:47.016Z,95883.03
2023-02-25T19:55:15.584Z,95893.31
2023-02-25T19:57:43.647Z,95897.84
2023-02-25T20:00:16.083Z,95904.63
2023-02-25T20:02:44.510Z,95908.84
2023-02-25T20:05:14.534Z,95899.44
2023-02-25T20:07:43.162Z,95910.72
2023-02-25T20:10:13.639Z,95909.50
2023-02-25T20:12:43.617Z,95914.72
2023-02-25T20:15:14.598Z,95925.66
2023-02-25T20:17:43.837Z,95929.41
2023-02-25T20:20:13.981Z,95926.50
2023-02-25T20:22:42.364Z,95933.16
2023-02-25T20:25:11.662Z,95939.13
2023-02-25T20:27:43.214Z,95935.81
2023-02-25T20:30:15.626Z,95939.78
2023-02-25T20:32:44.878Z,95935.41
2023-02-25T20:35:16.550Z,95938.69
2023-02-25T20:37:56.881Z,95942.13
2023-02-25T20:40:24.937Z,95947.00
2023-02-25T20:42:53.074Z,95948.53
2023-02-25T20:45:23.014Z,95949.09
2023-02-25T20:47:54.178Z,95955.25
2023-02-25T20:50:28.069Z,95968.03
2023-02-25T20:52:56.219Z,95961.47
2023-02-25T20:55:24.250Z,95971.53
2023-02-25T20:57:52.332Z,95969.19
2023-02-25T21:00:21.965Z,95962.13
2023-02-25T21:02:49.859Z,95963.97
2023-02-25T21:05:17.754Z,95964.84
2023-02-25T21:07:46.294Z,95983.69
2023-02-25T21:10:14.564Z,95970.28
2023-02-25T21:12:42.371Z,95971.31
2023-02-25T21:15:11.614Z,95978.41
2023-02-25T21:17:41.675Z,95969.91
2023-02-25T21:20:10.861Z,95973.47
2023-02-25T21:22:38.794Z,95972.69
2023-02-25T21:25:07.000Z,95975.13
2023-02-25T21:27:34.839Z,95978.91
2023-02-25T21:30:03.019Z,95976.25
2023-02-25T21:32:30.887Z,95982.41
2023-02-25T21:35:01.397Z,95980.00
2023-02-25T21:37:29.197Z,95983.47
2023-02-25T21:39:57.082Z,95983.00
2023-02-25T21:42:24.926Z,95986.78
2023-02-25T21:44:52.747Z,95986.94
2023-02-25T21:47:20.635Z,95993.47
2023-02-25T21:49:50.206Z,95984.56
2023-02-25T21:52:19.420Z,95998.31
2023-02-25T21:54:47.989Z,96006.78
2023-02-25T21:57:16.356Z,96005.38
2023-02-25T21:59:44.258Z,96005.63
2023-02-25T22:02:12.176Z,96008.50
2023-02-25T22:04:40.882Z,95998.63
2023-02-25T22:07:09.056Z,96002.00
2023-02-25T22:09:38.282Z,96001.00
2023-02-25T22:12:06.297Z,96009.50
2023-02-25T22:14:34.173Z,96012.41
2023-02-25T22:17:02.264Z,96012.34
2023-02-25T22:19:30.178Z,96006.13
2023-02-25T22:21:58.585Z,96012.63
2023-02-25T22:24:27.276Z,96021.50
2023-02-25T22:26:56.440Z,96017.78
2023-02-25T22:29:24.437Z,96012.16
2023-02-25T22:31:52.545Z,96013.47
2023-02-25T22:34:22.156Z,96010.03
2023-02-25T22:36:50.789Z,96021.66
2023-02-25T22:39:18.686Z,96027.47
2023-02-25T22:41:46.529Z,96017.38
2023-02-25T22:44:15.695Z,96020.06
2023-02-25T22:46:43.871Z,96021.50
2023-02-25T22:49:12.447Z,96018.97
2023-02-25T22:51:42.611Z,96016.53
2023-02-25T22:54:11.378Z,96021.50
2023-02-25T22:56:39.641Z,96027.50
2023-02-25T22:59:07.865Z,96028.09
2023-02-25T23:01:37.587Z,96027.00
2023-02-25T23:04:07.830Z,96028.72
2023-02-25T23:06:43.369Z,96035.75
2023-02-25T23:09:12.265Z,96030.00
2023-02-25T23:11:42.609Z,96034.97
2023-02-25T23:14:11.299Z,96032.69
2023-02-25T23:16:42.035Z,96030.78
2023-02-25T23:19:11.358Z,96039.94
2023-02-25T23:21:39.493Z,96039.63
2023-02-25T23:24:09.891Z,96035.66
2023-02-25T23:26:40.552Z,96041.72
2023-02-25T23:29:10.880Z,96052.03
2023-02-25T23:31:44.263Z,96039.97
2023-02-25T23:34:13.889Z,96040.63
2023-02-25T23:36:44.004Z,96048.44
2023-02-25T23:39:13.658Z,96048.59
2023-02-25T23:44:47.902Z,96056.84
2023-02-25T23:47:17.509Z,96051.31
2023-02-25T23:49:45.306Z,96049.56
2023-02-25T23:52:13.664Z,96050.34
2023-02-25T23:54:41.588Z,96051.19
2023-02-25T23:57:09.511Z,96048.72
2023-02-25T23:59:37.433Z,96055.00
